CST,Max TemperatureF,Mean TemperatureF,Min TemperatureF,Max Dew PointF,MeanDew PointF,Min DewpointF,Max Humidity, Mean Humidity, Min Humidity, Max Sea Level PressureIn, Mean Sea Level PressureIn, Min Sea Level PressureIn, Max VisibilityMiles, Mean VisibilityMiles, Min VisibilityMiles, Max Wind SpeedMPH, Mean Wind SpeedMPH, Max Gust SpeedMPH,PrecipitationIn, CloudCover, Events, WindDirDegrees
2013-2-1,68,57,46,47,44,36,93,63,32,30.40,30.32,30.28,10,10,10,15,5,20,0.00,0,,132
2013-2-2,72,60,48,56,52,46,100,77,53,30.29,30.24,30.19,10,7,0,12,6,18,0.00,1,Fog,168
2013-2-3,71,60,49,54,45,27,100,60,20,30.32,30.23,30.10,10,6,0,13,6,16,0.00,1,Fog,38
2013-2-4,69,59,49,61,57,48,93,81,68,30.09,29.94,29.87,10,10,8,15,8,17,T,6,Rain,122
2013-2-5,76,67,57,64,61,57,100,80,60,30.02,29.96,29.90,10,7,0,14,5,17,0.38,6,Fog-Rain,108
2013-2-6,66,62,57,63,60,57,100,94,87,30.07,29.99,29.90,10,5,0,28,11,36,0.52,7,Fog-Rain,76
2013-2-7,69,63,57,61,59,57,100,88,76,30.00,29.95,29.88,10,7,0,12,4,35,0.00,7,Fog,91
2013-2-8,69,61,53,61,55,48,100,79,58,30.16,30.08,29.99,10,8,0,21,11,25,0.00,6,Fog,336
2013-2-9,67,59,50,64,57,47,93,86,78,30.16,30.04,29.93,10,9,5,22,13,26,0.00,7,,99
2013-2-10,76,69,62,70,64,58,97,90,82,29.96,29.88,29.80,10,9,4,26,12,36,0.07,8,Rain,123
2013-2-11,63,59,54,59,52,50,93,86,78,30.09,30.01,29.96,10,9,2,22,13,30,0.34,8,Rain-Thunderstorm,39
2013-2-12,74,64,54,70,59,49,100,92,83,29.96,29.85,29.77,10,5,1,18,11,28,0.21,7,Rain,40
2013-2-13,60,52,43,49,42,38,86,66,46,30.09,30.04,29.98,10,10,7,22,10,28,0.03,3,Rain,340
2013-2-14,63,50,37,43,40,36,92,66,39,30.17,30.11,30.06,10,10,9,9,3,12,0.00,0,,48
2013-2-15,68,54,40,47,40,36,96,64,32,30.29,30.18,30.11,10,10,8,22,7,30,T,2,,350
2013-2-16,60,49,38,34,27,20,73,50,26,30.42,30.32,30.26,10,10,10,18,10,24,T,1,,330
2013-2-17,68,53,38,50,41,33,89,65,40,30.27,30.21,30.12,10,10,10,22,9,26,0.00,1,,163
2013-2-18,74,65,55,64,59,51,93,79,64,30.09,29.97,29.88,10,9,1,32,18,39,1.05,8,Rain-Thunderstorm,190
2013-2-19,67,58,49,52,39,30,80,53,26,30.26,30.17,30.07,10,10,10,22,13,30,0.04,1,Rain,38
2013-2-20,58,54,50,54,43,30,80,62,44,30.17,30.04,29.88,10,10,10,28,18,35,T,5,,92
2013-2-21,74,66,58,69,62,55,97,80,63,29.86,29.79,29.69,10,8,4,28,15,36,0.02,7,Rain,131
2013-2-22,66,61,55,55,50,44,93,71,48,29.97,29.92,29.85,10,10,10,16,10,20,T,6,,25
2013-2-23,68,59,49,52,48,45,100,75,49,29.98,29.94,29.89,10,9,2,18,7,22,0.00,2,,9
2013-2-24,69,58,47,59,52,44,93,73,52,29.96,29.83,29.70,10,10,6,17,9,21,0.08,4,Rain-Thunderstorm,80
2013-2-25,74,61,48,70,58,28,100,63,25,29.71,29.58,29.48,10,5,0,26,12,46,0.56,6,Fog-Rain,178
2013-2-26,64,53,42,43,36,32,74,54,34,29.95,29.84,29.73,10,10,10,21,10,29,0.00,0,,288
2013-2-27,73,58,42,50,40,30,89,57,25,30.14,30.01,29.93,10,10,10,25,8,32,0.00,0,,291
2013-2-28,56,48,39,36,30,27,70,51,32,30.26,30.19,30.14,10,10,10,18,9,25,0.00,0,,319